createdAt,value
2019-05-05T00:02:46.041Z,4.70
2019-05-05T00:05:30.432Z,5.57
2019-05-05T00:08:01.761Z,4.50
2019-05-05T00:10:46.041Z,6.53
2019-05-05T00:13:26.881Z,9.27
2019-05-05T00:16:17.080Z,6.07
2019-05-05T00:18:49.061Z,6.00
2019-05-05T00:21:20.091Z,5.23
2019-05-05T00:23:52.307Z,6.23
2019-05-05T00:26:24.368Z,5.87
2019-05-05T00:28:55.680Z,6.50
2019-05-05T00:31:27.122Z,6.17
2019-05-05T00:33:58.477Z,6.67
2019-05-05T00:36:29.737Z,4.70
2019-05-05T00:39:01.246Z,5.53
2019-05-05T00:41:34.606Z,4.70
2019-05-05T00:44:06.546Z,6.43
2019-05-05T00:46:56.715Z,6.47
2019-05-05T00:49:28.876Z,7.20
2019-05-05T00:52:00.260Z,5.83
2019-05-05T00:54:31.872Z,5.37
2019-05-05T00:57:04.434Z,6.77
2019-05-05T00:59:35.589Z,5.47
2019-05-05T01:02:28.299Z,6.47
2019-05-05T01:05:12.147Z,6.37
2019-05-05T01:07:44.381Z,5.90
2019-05-05T01:10:15.632Z,6.37
2019-05-05T01:12:47.023Z,6.53
2019-05-05T01:15:18.231Z,8.10
2019-05-05T01:17:49.520Z,5.50
2019-05-05T01:20:20.967Z,6.03
2019-05-05T01:22:52.229Z,5.50
2019-05-05T01:25:25.377Z,8.80
2019-05-05T01:27:56.844Z,5.50
2019-05-05T01:30:31.220Z,5.53
2019-05-05T01:33:09.514Z,7.03
2019-05-05T01:35:41.172Z,9.83
2019-05-05T01:38:18.636Z,8.43
2019-05-05T01:40:57.798Z,7.07
2019-05-05T01:43:29.355Z,6.97
2019-05-05T01:46:00.806Z,7.13
2019-05-05T01:48:32.317Z,5.77
2019-05-05T01:51:05.009Z,5.93
2019-05-05T01:53:37.686Z,8.33
2019-05-05T01:56:09.109Z,7.07
2019-05-05T01:58:40.637Z,6.60
2019-05-05T02:01:12.181Z,6.67
2019-05-05T02:03:44.306Z,5.63
2019-05-05T02:06:15.834Z,7.03
2019-05-05T02:08:47.202Z,7.63
2019-05-05T02:11:18.749Z,7.17
2019-05-05T02:13:50.095Z,8.20
2019-05-05T02:16:21.597Z,5.97
2019-05-05T02:18:54.438Z,7.87
2019-05-05T02:21:26.872Z,5.67
2019-05-05T02:23:58.801Z,6.67
2019-05-05T02:26:30.515Z,7.50
2019-05-05T02:29:19.682Z,6.40
2019-05-05T02:32:08.795Z,7.03
2019-05-05T02:34:46.132Z,6.05
2019-05-05T02:37:18.151Z,6.75
2019-05-05T02:39:58.923Z,6.23
2019-05-05T02:42:26.389Z,6.27
2019-05-05T02:45:05.077Z,6.40
2019-05-05T02:47:38.290Z,9.83
2019-05-05T02:50:09.906Z,9.33
2019-05-05T02:52:44.190Z,7.58
2019-05-05T02:55:16.163Z,10.32
2019-05-05T02:57:48.221Z,8.37
2019-05-05T03:00:38.895Z,7.93
2019-05-05T03:03:13.399Z,6.83
2019-05-05T03:05:44.874Z,8.63
2019-05-05T03:08:16.776Z,10.20
2019-05-05T03:10:48.930Z,9.70
2019-05-05T03:13:21.863Z,6.80
2019-05-05T03:15:58.301Z,8.15
2019-05-05T03:18:30.381Z,14.05
2019-05-05T03:21:07.147Z,6.72
2019-05-05T03:23:36.749Z,8.15
2019-05-05T03:26:08.550Z,8.70
2019-05-05T03:28:47.294Z,7.30
2019-05-05T03:31:19.348Z,6.83
2019-05-05T03:33:54.700Z,8.08
2019-05-05T03:36:25.889Z,9.80
2019-05-05T03:38:59.420Z,7.15
2019-05-05T03:41:43.858Z,8.60
2019-05-05T03:44:34.297Z,7.60
2019-05-05T03:47:06.323Z,9.88
2019-05-05T03:49:37.826Z,7.83
2019-05-05T03:52:09.590Z,8.97
2019-05-05T03:54:41.251Z,8.40
2019-05-05T03:57:14.107Z,7.78
2019-05-05T03:59:45.634Z,10.37
2019-05-05T04:02:25.994Z,7.07
2019-05-05T04:04:58.577Z,7.63
2019-05-05T04:07:30.291Z,10.33
2019-05-05T04:10:03.733Z,11.13
2019-05-05T04:12:35.639Z,8.50
2019-05-05T04:15:07.354Z,8.37
2019-05-05T04:17:56.302Z,10.30
2019-05-05T04:20:45.785Z,6.93
2019-05-05T04:23:17.205Z,9.73
2019-05-05T04:25:48.536Z,7.30
2019-05-05T04:28:19.940Z,10.53
2019-05-05T04:30:51.303Z,7.33
2019-05-05T04:33:23.660Z,7.63
2019-05-05T04:35:55.121Z,12.47
2019-05-05T04:38:26.395Z,9.03
2019-05-05T04:40:57.847Z,9.43
2019-05-05T04:43:29.173Z,11.70
2019-05-05T04:46:00.453Z,13.37
2019-05-05T04:48:43.912Z,11.57
2019-05-05T04:51:24.376Z,8.90
2019-05-05T04:54:15.869Z,10.60
2019-05-05T04:56:47.234Z,36.23
2019-05-05T04:59:18.345Z,28.90
2019-05-05T05:01:51.566Z,10.33
2019-05-05T05:04:30.830Z,11.07
2019-05-05T05:07:04.471Z,11.33
2019-05-05T05:09:35.369Z,9.90
2019-05-05T05:12:06.721Z,10.20
2019-05-05T05:14:37.930Z,10.43
2019-05-05T05:17:14.165Z,11.77
2019-05-05T05:19:45.626Z,10.90
2019-05-05T05:22:16.652Z,10.27
2019-05-05T05:24:47.936Z,9.60
2019-05-05T05:27:19.385Z,12.40
2019-05-05T05:29:50.783Z,14.70
2019-05-05T05:32:24.533Z,10.40
2019-05-05T05:34:56.364Z,14.33
2019-05-05T05:37:27.639Z,12.83
2019-05-05T05:40:08.510Z,15.10
2019-05-05T05:42:39.939Z,10.77
2019-05-05T05:45:48.623Z,11.23
2019-05-05T05:48:38.924Z,12.53
2019-05-05T05:51:14.500Z,9.60
2019-05-05T05:53:46.818Z,8.07
2019-05-05T05:56:17.904Z,7.80
2019-05-05T05:58:49.000Z,12.13
2019-05-05T06:01:20.754Z,6.90
2019-05-05T06:03:53.635Z,9.07
2019-05-05T06:06:25.411Z,10.83
2019-05-05T06:08:58.525Z,8.80
2019-05-05T06:11:30.397Z,8.63
2019-05-05T06:14:03.979Z,7.73
2019-05-05T06:16:37.258Z,5.73
2019-05-05T06:19:10.296Z,9.17
2019-05-05T06:21:43.852Z,11.17
2019-05-05T06:24:14.361Z,7.27
2019-05-05T06:26:45.558Z,5.50
2019-05-05T06:29:16.787Z,8.43
2019-05-05T06:31:47.884Z,6.90
2019-05-05T06:34:18.916Z,7.17
2019-05-05T06:36:50.019Z,5.97
2019-05-05T06:39:21.194Z,5.80
2019-05-05T06:42:01.310Z,5.97
2019-05-05T06:44:55.460Z,5.00
2019-05-05T06:47:29.533Z,5.87
2019-05-05T06:50:00.998Z,7.13
2019-05-05T06:52:43.700Z,5.43
2019-05-05T06:55:06.169Z,4.83
2019-05-05T06:57:37.694Z,10.37
2019-05-05T07:00:09.466Z,5.50
2019-05-05T07:02:41.087Z,4.83
2019-05-05T07:05:14.282Z,7.87
2019-05-05T07:07:45.297Z,5.83
2019-05-05T07:10:16.885Z,5.23
2019-05-05T07:12:48.118Z,8.43
2019-05-05T07:15:19.619Z,6.70
2019-05-05T07:17:50.827Z,5.50
2019-05-05T07:20:24.027Z,7.80
2019-05-05T07:23:01.418Z,8.57
2019-05-05T07:25:39.884Z,7.20
2019-05-05T07:28:00.817Z,9.07
2019-05-05T07:30:33.572Z,8.20
2019-05-05T07:33:05.126Z,10.00
2019-05-05T07:35:55.368Z,7.30
2019-05-05T07:38:17.855Z,8.90
2019-05-05T07:40:48.909Z,6.97
2019-05-05T07:43:20.333Z,8.37
2019-05-05T07:45:53.885Z,7.47
2019-05-05T07:48:24.618Z,7.60
2019-05-05T07:51:01.936Z,7.13
2019-05-05T07:53:28.324Z,9.03
2019-05-05T07:55:59.633Z,6.87
2019-05-05T07:58:30.901Z,7.27
2019-05-05T08:01:02.056Z,9.70
2019-05-05T08:03:33.856Z,11.77
2019-05-05T08:06:05.427Z,7.17
2019-05-05T08:08:37.356Z,9.33
2019-05-05T08:11:08.523Z,7.60
2019-05-05T08:13:39.718Z,7.70
2019-05-05T08:16:29.899Z,13.03
2019-05-05T08:19:13.762Z,7.27
2019-05-05T08:21:45.157Z,8.90
2019-05-05T08:24:33.735Z,6.53
2019-05-05T08:27:34.000Z,9.97
2019-05-05T08:30:15.314Z,6.87
2019-05-05T08:32:46.949Z,5.50
2019-05-05T08:35:18.394Z,6.37
2019-05-05T08:37:50.848Z,9.33
2019-05-05T08:40:24.014Z,4.77
2019-05-05T08:42:55.192Z,5.53
2019-05-05T08:45:26.825Z,5.33
2019-05-05T08:47:58.448Z,10.50
2019-05-05T08:50:29.903Z,7.67
2019-05-05T08:53:01.222Z,4.17
2019-05-05T08:55:34.590Z,8.07
2019-05-05T08:58:06.203Z,4.57
2019-05-05T09:00:37.573Z,6.07
2019-05-05T09:03:09.142Z,9.73
2019-05-05T09:05:40.277Z,8.97
2019-05-05T09:08:13.783Z,6.80
2019-05-05T09:10:44.893Z,7.30
2019-05-05T09:13:16.276Z,4.77
2019-05-05T09:15:47.572Z,5.73
2019-05-05T09:18:18.593Z,6.57
2019-05-05T09:20:49.684Z,4.83
2019-05-05T09:23:20.662Z,12.50
2019-05-05T09:26:04.437Z,7.03
2019-05-05T09:28:40.083Z,8.53
2019-05-05T09:31:10.996Z,8.17
2019-05-05T09:33:44.188Z,9.97
2019-05-05T09:36:15.149Z,6.97
2019-05-05T09:38:46.326Z,5.63
2019-05-05T09:41:17.538Z,12.07
2019-05-05T09:43:48.653Z,5.30
2019-05-05T09:46:19.718Z,6.90
2019-05-05T09:48:51.272Z,6.17
2019-05-05T09:51:24.152Z,5.33
2019-05-05T09:53:55.655Z,6.83
2019-05-05T09:56:26.995Z,8.03
2019-05-05T09:58:58.206Z,7.83
2019-05-05T10:01:29.390Z,6.40
2019-05-05T10:04:10.602Z,7.20
2019-05-05T10:06:45.514Z,8.73
2019-05-05T10:09:15.178Z,7.77
2019-05-05T10:11:46.430Z,10.80
2019-05-05T10:14:17.724Z,9.57
2019-05-05T10:16:49.324Z,7.80
2019-05-05T10:19:20.644Z,8.20
2019-05-05T10:21:51.963Z,10.13
2019-05-05T10:24:31.031Z,17.07
2019-05-05T10:27:00.386Z,9.17
2019-05-05T10:29:31.776Z,11.60
2019-05-05T10:32:04.554Z,7.93
2019-05-05T10:34:35.895Z,10.03
2019-05-05T10:37:07.223Z,7.20
2019-05-05T10:39:44.017Z,10.37
2019-05-05T10:42:15.357Z,8.13
2019-05-05T10:44:47.611Z,11.43
2019-05-05T10:47:18.829Z,8.80
2019-05-05T10:49:50.059Z,8.20
2019-05-05T10:52:21.166Z,7.77
2019-05-05T10:54:54.695Z,12.33
2019-05-05T10:57:25.132Z,10.37
2019-05-05T11:00:09.371Z,13.47
2019-05-05T11:02:29.617Z,16.40
2019-05-05T11:05:00.842Z,12.10
2019-05-05T11:07:34.096Z,8.97
2019-05-05T11:10:05.982Z,8.13
2019-05-05T11:12:37.121Z,8.93
2019-05-05T11:15:10.136Z,9.73
2019-05-05T11:17:41.355Z,10.00
2019-05-05T11:20:14.425Z,9.90
2019-05-05T11:22:45.609Z,11.90
2019-05-05T11:25:17.050Z,8.33
2019-05-05T11:27:48.222Z,10.53
2019-05-05T11:30:26.916Z,9.40
2019-05-05T11:33:34.279Z,8.30
2019-05-05T11:36:16.466Z,7.80
2019-05-05T11:38:47.721Z,12.70
2019-05-05T11:41:19.073Z,7.17
2019-05-05T11:43:50.153Z,11.17
2019-05-05T11:46:21.387Z,9.93
2019-05-05T11:48:54.421Z,10.50
2019-05-05T11:51:26.134Z,12.53
2019-05-05T11:53:57.414Z,10.33
2019-05-05T11:56:28.900Z,10.87
2019-05-05T11:59:00.112Z,10.53
2019-05-05T12:01:31.322Z,11.83
2019-05-05T12:04:04.373Z,7.30
2019-05-05T12:06:36.017Z,11.30
2019-05-05T12:09:13.954Z,9.60
2019-05-05T12:11:45.186Z,8.57
2019-05-05T12:14:18.945Z,12.63
2019-05-05T12:16:49.958Z,8.73
2019-05-05T12:19:21.346Z,7.80
2019-05-05T12:21:54.574Z,9.23
2019-05-05T12:24:29.713Z,10.00
2019-05-05T12:27:24.615Z,11.97
2019-05-05T12:29:59.994Z,8.10
2019-05-05T12:32:31.432Z,8.20
2019-05-05T12:35:04.233Z,9.37
2019-05-05T12:37:35.480Z,11.73
2019-05-05T12:40:08.176Z,10.57
2019-05-05T12:42:39.527Z,13.43
2019-05-05T12:45:14.086Z,14.30
2019-05-05T12:48:10.068Z,9.90
2019-05-05T12:50:41.182Z,11.20
2019-05-05T12:53:14.406Z,9.77
2019-05-05T12:55:45.407Z,9.97
2019-05-05T12:58:16.930Z,9.30
2019-05-05T13:00:57.392Z,9.77
2019-05-05T13:03:28.472Z,14.37
2019-05-05T13:05:59.969Z,10.30
2019-05-05T13:08:33.891Z,12.63
2019-05-05T13:11:04.883Z,12.57
2019-05-05T13:13:36.359Z,12.87
2019-05-05T13:16:07.477Z,15.10
2019-05-05T13:18:38.921Z,14.57
2019-05-05T13:21:41.179Z,17.37
2019-05-05T13:24:40.461Z,14.23
2019-05-05T13:27:11.525Z,14.50
2019-05-05T13:29:44.278Z,24.60
2019-05-05T13:32:15.597Z,18.33
2019-05-05T13:34:46.570Z,19.57
2019-05-05T13:37:18.013Z,12.47
2019-05-05T13:39:49.237Z,13.80
2019-05-05T13:42:20.405Z,13.23
2019-05-05T13:45:03.975Z,16.10
2019-05-05T13:47:35.326Z,9.13
2019-05-05T13:50:14.188Z,16.83
2019-05-05T13:52:45.776Z,9.73
2019-05-05T13:55:17.270Z,13.83
2019-05-05T13:57:48.885Z,12.00
2019-05-05T14:00:20.681Z,8.77
2019-05-05T14:02:51.841Z,8.97
2019-05-05T14:05:24.036Z,20.40
2019-05-05T14:07:55.523Z,12.70
2019-05-05T14:10:26.904Z,14.57
2019-05-05T14:12:58.983Z,14.57
2019-05-05T14:15:30.256Z,12.43
2019-05-05T14:18:03.674Z,12.37
2019-05-05T14:20:34.795Z,12.50
2019-05-05T14:23:05.916Z,15.37
2019-05-05T14:25:37.453Z,12.10
2019-05-05T14:28:08.748Z,15.07
2019-05-05T14:30:54.562Z,11.43
2019-05-05T14:33:28.550Z,15.50
2019-05-05T14:36:25.863Z,10.27
2019-05-05T14:38:58.288Z,9.37
2019-05-05T14:41:29.604Z,15.43
2019-05-05T14:44:00.736Z,18.03
2019-05-05T14:46:33.923Z,11.17
2019-05-05T14:49:05.816Z,16.23
2019-05-05T14:51:37.283Z,13.40
2019-05-05T14:54:10.804Z,15.37
2019-05-05T14:56:43.891Z,18.57
2019-05-05T14:59:14.583Z,21.07
2019-05-05T15:01:46.074Z,18.27
2019-05-05T15:04:19.045Z,15.93
2019-05-05T15:07:00.352Z,14.23
2019-05-05T15:09:54.655Z,13.97
2019-05-05T15:12:38.859Z,10.37
2019-05-05T15:15:10.191Z,10.97
2019-05-05T15:17:41.217Z,12.20
2019-05-05T15:20:13.985Z,13.90
2019-05-05T15:22:45.196Z,8.67
2019-05-05T15:25:16.558Z,10.60
2019-05-05T15:27:48.143Z,11.70
2019-05-05T15:30:19.375Z,14.23
2019-05-05T15:32:50.561Z,15.60
2019-05-05T15:35:21.936Z,19.80
2019-05-05T15:37:54.155Z,15.30
2019-05-05T15:40:25.533Z,9.90
2019-05-05T15:42:56.663Z,16.53
2019-05-05T15:45:28.052Z,15.73
2019-05-05T15:47:59.478Z,12.30
2019-05-05T15:50:30.798Z,16.30
2019-05-05T15:53:03.805Z,14.60
2019-05-05T15:55:35.259Z,13.17
2019-05-05T15:58:06.604Z,13.97
2019-05-05T16:00:37.769Z,12.60
2019-05-05T16:03:09.286Z,12.93
2019-05-05T16:05:40.540Z,14.37
2019-05-05T16:08:11.629Z,10.57
2019-05-05T16:10:44.020Z,15.03
2019-05-05T16:13:15.645Z,11.57
2019-05-05T16:16:05.779Z,13.03
2019-05-05T16:19:05.250Z,15.27
2019-05-05T16:21:40.693Z,19.57
2019-05-05T16:24:20.602Z,13.43
2019-05-05T16:26:55.231Z,15.27
2019-05-05T16:29:24.408Z,18.70
2019-05-05T16:31:55.791Z,13.30
2019-05-05T16:34:26.952Z,16.50
2019-05-05T16:36:58.023Z,15.27
2019-05-05T16:39:29.190Z,14.50
2019-05-05T16:42:00.445Z,14.00
2019-05-05T16:44:33.992Z,13.87
2019-05-05T16:47:04.871Z,12.27
2019-05-05T16:49:36.157Z,13.33
2019-05-05T16:52:14.584Z,9.53
2019-05-05T16:55:05.630Z,11.03
2019-05-05T16:57:37.125Z,10.57
2019-05-05T17:00:08.750Z,10.57
2019-05-05T17:02:39.893Z,11.70
2019-05-05T17:05:13.629Z,12.47
2019-05-05T17:07:44.564Z,23.47
2019-05-05T17:10:15.950Z,8.87
2019-05-05T17:12:47.536Z,15.83
2019-05-05T17:15:46.685Z,11.60
2019-05-05T17:18:41.876Z,11.00
2019-05-05T17:21:21.873Z,12.90
2019-05-05T17:23:53.954Z,14.47
2019-05-05T17:26:25.308Z,15.03
2019-05-05T17:28:56.647Z,12.77
2019-05-05T17:31:27.804Z,14.63
2019-05-05T17:33:59.244Z,13.53
2019-05-05T17:36:30.531Z,12.83
2019-05-05T17:39:01.666Z,11.73
2019-05-05T17:41:53.876Z,13.17
2019-05-05T17:44:44.281Z,13.40
2019-05-05T17:47:25.250Z,12.57
2019-05-05T17:50:08.783Z,13.03
2019-05-05T17:52:47.085Z,17.93
2019-05-05T17:55:29.087Z,23.53
2019-05-05T17:58:02.666Z,22.27
2019-05-05T18:00:36.611Z,18.33
2019-05-05T18:03:08.128Z,17.77
2019-05-05T18:05:56.957Z,12.70
2019-05-05T18:08:53.775Z,11.20
2019-05-05T18:11:30.255Z,14.70
2019-05-05T18:14:05.529Z,22.40
2019-05-05T18:16:36.552Z,16.97
2019-05-05T18:19:07.798Z,21.37
2019-05-05T18:21:39.170Z,19.33
2019-05-05T18:24:10.131Z,16.93
2019-05-05T18:26:43.435Z,17.17
2019-05-05T18:29:14.560Z,20.07
2019-05-05T18:31:45.936Z,12.47
2019-05-05T18:34:17.099Z,14.40
2019-05-05T18:36:48.206Z,11.07
2019-05-05T18:39:19.620Z,14.33
2019-05-05T18:42:09.734Z,13.50
2019-05-05T18:44:44.481Z,16.53
2019-05-05T18:47:19.403Z,14.63
2019-05-05T18:49:53.962Z,11.20
2019-05-05T18:52:25.319Z,13.40
2019-05-05T18:54:56.307Z,14.70
2019-05-05T18:57:27.354Z,13.53
2019-05-05T18:59:58.476Z,11.23
2019-05-05T19:02:44.270Z,12.07
2019-05-05T19:05:23.714Z,8.20
2019-05-05T19:08:01.454Z,11.60
2019-05-05T19:10:33.719Z,9.83
2019-05-05T19:13:05.194Z,9.70
2019-05-05T19:15:36.744Z,9.70
2019-05-05T19:18:08.147Z,13.37
2019-05-05T19:20:54.240Z,15.37
2019-05-05T19:23:25.345Z,11.67
2019-05-05T19:25:56.480Z,13.03
2019-05-05T19:28:40.974Z,13.07
2019-05-05T19:31:00.430Z,11.03
2019-05-05T19:33:33.922Z,12.43
2019-05-05T19:36:05.030Z,10.93
2019-05-05T19:38:36.131Z,9.10
2019-05-05T19:41:07.079Z,14.77
2019-05-05T19:43:54.858Z,14.80
2019-05-05T19:46:37.845Z,14.47
2019-05-05T19:49:18.417Z,12.40
2019-05-05T19:51:50.135Z,14.07
2019-05-05T19:54:21.951Z,14.67
2019-05-05T19:56:54.246Z,18.13
2019-05-05T19:59:25.391Z,15.07
2019-05-05T20:01:56.542Z,18.40
2019-05-05T20:04:27.864Z,13.87
2019-05-05T20:06:59.237Z,15.67
2019-05-05T20:09:30.653Z,16.00
2019-05-05T20:12:03.870Z,16.70
2019-05-05T20:14:36.324Z,16.83
2019-05-05T20:17:16.570Z,16.33
2019-05-05T20:19:47.673Z,14.73
2019-05-05T20:22:18.823Z,21.10
2019-05-05T20:24:49.758Z,16.17
2019-05-05T20:27:21.141Z,8.70
2019-05-05T20:29:52.321Z,8.50
2019-05-05T20:32:34.141Z,5.60
2019-05-05T20:35:17.942Z,4.13
2019-05-05T20:38:14.352Z,9.07
2019-05-05T20:40:47.120Z,7.97
2019-05-05T20:43:18.327Z,8.20
2019-05-05T20:45:49.376Z,12.53
2019-05-05T20:48:20.314Z,13.77
2019-05-05T20:50:51.331Z,12.27
2019-05-05T20:53:24.547Z,12.13
2019-05-05T20:55:55.016Z,15.00
2019-05-05T20:58:26.251Z,17.37
2019-05-05T21:00:57.480Z,12.20
2019-05-05T21:03:28.764Z,14.00
2019-05-05T21:05:59.825Z,15.63
2019-05-05T21:08:30.893Z,7.83
2019-05-05T21:11:04.176Z,12.53
2019-05-05T21:13:35.214Z,8.93
2019-05-05T21:16:06.227Z,4.50
2019-05-05T21:18:37.197Z,3.47
2019-05-05T21:21:13.740Z,2.13
2019-05-05T21:23:49.628Z,3.07
2019-05-05T21:26:25.031Z,2.37
2019-05-05T21:28:56.088Z,2.03
2019-05-05T21:31:27.324Z,4.90
2019-05-05T21:33:58.377Z,9.37
2019-05-05T21:36:29.757Z,10.60
2019-05-05T21:39:01.215Z,10.50
2019-05-05T21:41:34.054Z,10.40
2019-05-05T21:44:05.623Z,10.03
2019-05-05T21:46:36.910Z,10.90
2019-05-05T21:49:08.160Z,12.43
2019-05-05T21:52:07.359Z,12.27
2019-05-05T21:55:04.709Z,15.00
2019-05-05T21:58:01.034Z,10.17
2019-05-05T22:00:49.630Z,16.20
2019-05-05T22:03:27.772Z,14.63
2019-05-05T22:05:58.930Z,14.77
2019-05-05T22:08:29.986Z,12.97
2019-05-05T22:11:03.770Z,14.13
2019-05-05T22:13:36.603Z,15.47
2019-05-05T22:16:08.380Z,12.30
2019-05-05T22:18:40.110Z,15.97
2019-05-05T22:21:45.173Z,12.20
2019-05-05T22:24:17.444Z,13.30
2019-05-05T22:26:48.830Z,11.53
2019-05-05T22:29:20.343Z,9.83
2019-05-05T22:31:51.709Z,16.73
2019-05-05T22:34:24.118Z,14.70
2019-05-05T22:36:55.602Z,19.70
2019-05-05T22:39:27.034Z,11.27
2019-05-05T22:41:58.405Z,9.80
2019-05-05T22:44:29.519Z,13.60
2019-05-05T22:47:00.764Z,10.17
2019-05-05T22:49:31.888Z,13.40
2019-05-05T22:52:03.845Z,12.33
2019-05-05T22:54:35.088Z,6.83
2019-05-05T22:57:06.331Z,10.63
2019-05-05T22:59:37.391Z,7.40
2019-05-05T23:02:08.919Z,11.27
2019-05-05T23:04:57.891Z,6.43
2019-05-05T23:07:31.103Z,6.00
2019-05-05T23:10:04.462Z,4.40
2019-05-05T23:12:35.210Z,4.63
2019-05-05T23:15:09.447Z,2.13
2019-05-05T23:17:56.384Z,2.83
2019-05-05T23:21:02.521Z,3.17
2019-05-05T23:23:50.366Z,2.87
2019-05-05T23:26:22.306Z,5.97
2019-05-05T23:28:53.820Z,11.33
2019-05-05T23:31:24.938Z,15.93
2019-05-05T23:33:56.093Z,11.07
2019-05-05T23:36:27.537Z,12.20
2019-05-05T23:38:58.902Z,16.63
2019-05-05T23:41:31.205Z,18.33
2019-05-05T23:44:03.664Z,15.07
2019-05-05T23:46:34.999Z,15.13
2019-05-05T23:49:06.469Z,18.33
2019-05-05T23:51:38.858Z,11.83
2019-05-05T23:54:10.362Z,8.33
2019-05-05T23:56:41.619Z,8.43
2019-05-05T23:59:13.705Z,6.20
